Time;durP1;ratioP1;P1;durP2;ratioP2;P2;SDS_P1;SDS_P2;PMS_P1;PMS_P2;Temp;Humidity;BMP_temperature;BMP_pressure;BME280_temperature;BME280_humidity;BME280_pressure;Samples;Min_cycle;Max_cycle;Signal;HPM_P1;HPM_P2
2022/11/12 00:01:12;;;;;;;32.10;17.60;;;;;;;;;;6222906;22;20346;-74
2022/11/12 00:03:37;;;;;;;39.45;17.35;;;;;;;;;;6273056;22;20015;-75
2022/11/12 00:06:03;;;;;;;32.55;17.05;;;;;;;;;;6273510;22;20003;-76
2022/11/12 00:08:28;;;;;;;31.08;16.95;;;;;;;;;;6274475;22;20122;-76
2022/11/12 00:10:53;;;;;;;29.95;16.45;;;;;;;;;;6273116;22;20003;-75
2022/11/12 00:13:19;;;;;;;33.25;17.55;;;;;;;;;;6273107;22;20011;-74
2022/11/12 00:15:45;;;;;;;31.05;17.15;;;;;;;;;;6274724;22;20079;-75
2022/11/12 00:18:10;;;;;;;28.30;17.48;;;;;;;;;;6273039;22;20003;-75
2022/11/12 00:20:36;;;;;;;34.40;17.33;;;;;;;;;;6273096;22;20054;-75
2022/11/12 00:23:01;;;;;;;38.08;18.92;;;;;;;;;;6274407;22;20010;-78
2022/11/12 00:25:27;;;;;;;33.72;18.00;;;;;;;;;;6247681;22;20110;-79
2022/11/12 00:27:52;;;;;;;32.08;17.63;;;;;;;;;;6274584;22;20000;-75
2022/11/12 00:30:18;;;;;;;34.38;18.50;;;;;;;;;;6273019;22;20004;-75
2022/11/12 00:32:43;;;;;;;34.92;17.45;;;;;;;;;;6273045;22;20077;-75
2022/11/12 00:35:09;;;;;;;30.80;17.55;;;;;;;;;;6274510;22;20004;-77
2022/11/12 00:37:34;;;;;;;35.67;17.92;;;;;;;;;;6273115;22;20419;-75
2022/11/12 00:40:00;;;;;;;32.88;17.13;;;;;;;;;;6273154;22;20003;-79
2022/11/12 00:42:25;;;;;;;32.00;16.58;;;;;;;;;;6273230;22;20079;-79
2022/11/12 00:44:51;;;;;;;30.98;17.65;;;;;;;;;;6273126;22;20003;-77
2022/11/12 00:47:16;;;;;;;32.53;16.63;;;;;;;;;;6274345;22;20029;-78
2022/11/12 00:49:41;;;;;;;35.10;17.67;;;;;;;;;;6274531;22;19995;-78
2022/11/12 00:52:07;;;;;;;32.45;17.02;;;;;;;;;;6273088;22;20449;-78
2022/11/12 00:54:32;;;;;;;31.58;17.25;;;;;;;;;;6274339;22;19999;-78
2022/11/12 00:56:58;;;;;;;35.50;17.52;;;;;;;;;;6276789;22;20007;-77
2022/11/12 00:59:23;;;;;;;30.27;16.13;;;;;;;;;;6273001;22;20014;-78
2022/11/12 01:01:48;;;;;;;31.83;16.98;;;;;;;;;;6273724;22;20007;-78
2022/11/12 01:04:14;;;;;;;31.40;16.35;;;;;;;;;;6274151;22;20011;-78
2022/11/12 01:06:40;;;;;;;33.42;16.35;;;;;;;;;;6274438;22;20000;-78
2022/11/12 01:09:06;;;;;;;31.25;16.35;;;;;;;;;;6274411;22;20057;-78
2022/11/12 01:11:31;;;;;;;31.80;17.17;;;;;;;;;;6275364;22;20000;-77
2022/11/12 01:14:02;;;;;;;30.27;17.05;;;;;;;;;;6276254;22;20054;-78
2022/11/12 01:16:30;;;;;;;30.92;17.73;;;;;;;;;;6276413;22;20007;-77
2022/11/12 01:18:57;;;;;;;30.92;18.15;;;;;;;;;;6276402;22;20004;-77
2022/11/12 01:21:26;;;;;;;36.13;19.33;;;;;;;;;;6276292;22;20007;-78
2022/11/12 01:23:52;;;;;;;32.67;18.63;;;;;;;;;;6274861;22;20011;-79
2022/11/12 01:26:19;;;;;;;35.10;19.23;;;;;;;;;;6274906;22;20486;-78
2022/11/12 01:28:44;;;;;;;31.05;18.30;;;;;;;;;;6276141;22;20000;-76
2022/11/12 01:31:24;;;;;;;31.20;18.42;;;;;;;;;;6275782;22;20031;-75
2022/11/12 01:33:55;;;;;;;32.75;19.27;;;;;;;;;;6276332;22;20008;-76
2022/11/12 01:36:20;;;;;;;32.78;19.25;;;;;;;;;;6223208;22;20398;-75
2022/11/12 01:38:46;;;;;;;34.28;18.90;;;;;;;;;;6274315;22;20003;-75
2022/11/12 01:41:14;;;;;;;31.52;17.50;;;;;;;;;;6249128;22;20004;-75
2022/11/12 01:43:39;;;;;;;25.17;16.00;;;;;;;;;;6275931;22;20344;-75
2022/11/12 01:46:19;;;;;;;20.40;11.80;;;;;;;;;;6275406;22;20007;-76
2022/11/12 01:48:52;;;;;;;18.27;10.80;;;;;;;;;;6251636;22;20003;-75
2022/11/12 01:51:18;;;;;;;15.68;9.43;;;;;;;;;;6249056;22;20495;-75
2022/11/12 01:53:45;;;;;;;14.00;9.40;;;;;;;;;;6274473;22;20010;-76
2022/11/12 01:56:11;;;;;;;13.68;8.82;;;;;;;;;;6249257;22;20108;-75
2022/11/12 01:58:36;;;;;;;15.77;9.32;;;;;;;;;;6249206;22;20025;-79
2022/11/12 02:01:02;;;;;;;15.88;8.95;;;;;;;;;;6248869;22;20004;-75
2022/11/12 02:03:27;;;;;;;18.00;10.10;;;;;;;;;;6274111;22;20008;-75
2022/11/12 02:06:04;;;;;;;16.48;10.50;;;;;;;;;;6276032;22;20007;-75
2022/11/12 02:08:30;;;;;;;20.33;10.38;;;;;;;;;;6249737;22;20051;-76
2022/11/12 02:10:55;;;;;;;21.23;11.13;;;;;;;;;;6248783;22;20423;-79
2022/11/12 02:16:04;;;;;;;16.42;10.23;;;;;;;;;;6253026;22;20014;-79
2022/11/12 02:18:30;;;;;;;18.00;10.60;;;;;;;;;;6249832;22;20420;-76
2022/11/12 02:20:57;;;;;;;19.55;10.65;;;;;;;;;;6276191;22;20038;-76
2022/11/12 02:23:22;;;;;;;19.70;10.90;;;;;;;;;;6249258;22;20057;-76
2022/11/12 02:25:48;;;;;;;19.95;10.73;;;;;;;;;;6274188;22;20007;-76
2022/11/12 02:28:13;;;;;;;19.38;11.10;;;;;;;;;;6274201;22;20325;-75
2022/11/12 02:30:42;;;;;;;18.95;10.93;;;;;;;;;;6277184;22;20014;-76
2022/11/12 02:33:07;;;;;;;19.15;9.93;;;;;;;;;;6284091;22;20000;-78
2022/11/12 02:35:33;;;;;;;22.52;10.18;;;;;;;;;;6276733;22;20004;-76
2022/11/12 02:37:58;;;;;;;18.33;10.15;;;;;;;;;;6273089;22;20348;-77
2022/11/12 02:40:24;;;;;;;18.10;10.60;;;;;;;;;;6223468;22;20454;-76
2022/11/12 02:42:49;;;;;;;22.55;10.63;;;;;;;;;;6275015;22;20004;-76
2022/11/12 02:45:15;;;;;;;20.10;12.10;;;;;;;;;;6275230;22;19999;-78
2022/11/12 02:47:41;;;;;;;20.70;11.55;;;;;;;;;;6274518;22;20008;-76
2022/11/12 02:50:06;;;;;;;21.90;11.93;;;;;;;;;;6273817;22;20053;-75
2022/11/12 02:52:32;;;;;;;29.70;11.52;;;;;;;;;;6273729;22;20008;-76
2022/11/12 02:54:58;;;;;;;25.52;11.63;;;;;;;;;;6274066;22;20374;-77
2022/11/12 02:57:23;;;;;;;22.17;11.98;;;;;;;;;;6274983;22;20010;-77
2022/11/12 02:59:48;;;;;;;25.48;12.75;;;;;;;;;;6249570;22;19995;-76
2022/11/12 03:02:14;;;;;;;25.27;13.63;;;;;;;;;;6275354;22;20023;-77
2022/11/12 03:04:39;;;;;;;23.80;13.00;;;;;;;;;;6247999;22;20004;-78
2022/11/12 03:07:05;;;;;;;25.13;13.55;;;;;;;;;;6248194;22;20027;-77
2022/11/12 03:09:30;;;;;;;27.90;14.30;;;;;;;;;;6275154;22;20002;-76
2022/11/12 03:11:56;;;;;;;27.98;14.38;;;;;;;;;;6273615;22;20011;-76
2022/11/12 03:14:21;;;;;;;26.10;13.10;;;;;;;;;;6275171;22;20080;-76
2022/11/12 03:16:47;;;;;;;26.05;14.07;;;;;;;;;;6275267;22;20049;-76
2022/11/12 03:19:12;;;;;;;23.40;13.25;;;;;;;;;;6274046;22;20113;-77
2022/11/12 03:21:38;;;;;;;26.55;13.68;;;;;;;;;;6273870;22;20315;-77
2022/11/12 03:24:03;;;;;;;23.42;12.95;;;;;;;;;;6275335;22;20018;-77
2022/11/12 03:26:29;;;;;;;25.45;12.77;;;;;;;;;;6275016;22;20020;-77
2022/11/12 03:28:54;;;;;;;21.63;12.55;;;;;;;;;;6275000;22;20315;-76
2022/11/12 03:31:20;;;;;;;21.48;12.95;;;;;;;;;;6274948;22;19999;-77
2022/11/12 03:33:45;;;;;;;22.35;12.93;;;;;;;;;;6274828;22;20008;-77
2022/11/12 03:36:11;;;;;;;24.35;12.70;;;;;;;;;;6273155;22;20075;-77
2022/11/12 03:38:37;;;;;;;28.55;13.98;;;;;;;;;;6273819;22;20066;-77
2022/11/12 03:41:02;;;;;;;25.63;12.88;;;;;;;;;;6273137;22;20000;-77
2022/11/12 03:43:27;;;;;;;30.52;13.32;;;;;;;;;;6247593;22;20004;-77
2022/11/12 03:45:53;;;;;;;27.80;13.95;;;;;;;;;;6247668;22;20381;-77
2022/11/12 03:48:18;;;;;;;26.67;13.45;;;;;;;;;;6274810;22;20023;-76
2022/11/12 03:50:44;;;;;;;24.85;14.25;;;;;;;;;;6273328;22;19996;-76
2022/11/12 03:53:09;;;;;;;25.40;13.40;;;;;;;;;;6248064;22;20450;-78
2022/11/12 03:55:35;;;;;;;25.98;13.60;;;;;;;;;;6247515;22;20366;-77
2022/11/12 03:58:00;;;;;;;22.10;13.38;;;;;;;;;;6247827;22;20061;-76
2022/11/12 04:00:26;;;;;;;25.42;13.82;;;;;;;;;;6274966;22;20343;-77
2022/11/12 04:02:52;;;;;;;29.02;15.52;;;;;;;;;;6272846;22;20072;-77
2022/11/12 04:10:49;;;;;;;21.88;13.23;;;;;;;;;;6274486;22;20016;-77
2022/11/12 04:13:27;;;;;;;28.45;14.75;;;;;;;;;;6274682;22;20008;-76
2022/11/12 04:21:53;;;;;;;23.52;12.80;;;;;;;;;;6252017;22;20010;-77
2022/11/12 04:27:32;;;;;;;22.33;12.07;;;;;;;;;;6251882;22;20018;-77
2022/11/12 04:30:16;;;;;;;24.67;12.32;;;;;;;;;;6275294;22;20000;-78
2022/11/12 04:32:55;;;;;;;22.73;12.30;;;;;;;;;;6251268;22;20015;-77
2022/11/12 04:35:22;;;;;;;22.93;12.37;;;;;;;;;;6250137;22;20008;-77
2022/11/12 04:37:47;;;;;;;20.48;11.95;;;;;;;;;;6247959;22;20004;-77
2022/11/12 04:45:50;;;;;;;23.83;13.18;;;;;;;;;;6252300;22;20015;-77
2022/11/12 04:48:16;;;;;;;23.33;13.13;;;;;;;;;;6249753;22;19999;-76
2022/11/12 04:50:43;;;;;;;24.90;13.55;;;;;;;;;;6275267;22;20077;-77
2022/11/12 04:53:08;;;;;;;25.95;13.77;;;;;;;;;;6249245;22;20037;-77
2022/11/12 04:55:34;;;;;;;23.65;13.85;;;;;;;;;;6275152;22;19999;-77
2022/11/12 04:57:59;;;;;;;26.25;13.43;;;;;;;;;;6276815;22;20082;-77
2022/11/12 05:00:25;;;;;;;24.45;13.43;;;;;;;;;;6275552;22;20456;-77
2022/11/12 05:02:50;;;;;;;27.45;14.25;;;;;;;;;;6276237;22;20086;-77
2022/11/12 05:05:16;;;;;;;24.63;14.57;;;;;;;;;;6276191;22;20008;-77
2022/11/12 05:07:41;;;;;;;24.58;13.82;;;;;;;;;;6275941;22;20316;-77
2022/11/12 05:10:07;;;;;;;29.58;15.90;;;;;;;;;;6276494;22;20014;-77
2022/11/12 05:12:32;;;;;;;27.27;15.90;;;;;;;;;;6275131;22;20023;-77
2022/11/12 05:14:58;;;;;;;27.63;16.52;;;;;;;;;;6276183;22;20011;-77
2022/11/12 05:17:23;;;;;;;28.33;16.55;;;;;;;;;;6276209;22;20003;-77
2022/11/12 05:19:49;;;;;;;35.13;18.40;;;;;;;;;;6276543;22;20008;-76
2022/11/12 05:22:14;;;;;;;39.92;20.77;;;;;;;;;;6276525;22;19999;-77
2022/11/12 05:24:41;;;;;;;37.17;21.58;;;;;;;;;;6279213;22;19999;-75
2022/11/12 05:27:18;;;;;;;33.30;19.65;;;;;;;;;;6274788;22;20047;-76
2022/11/12 05:29:43;;;;;;;37.67;20.38;;;;;;;;;;6276994;22;20004;-77
2022/11/12 05:32:11;;;;;;;38.00;19.25;;;;;;;;;;6275112;22;20010;-77
2022/11/12 05:34:36;;;;;;;35.92;19.27;;;;;;;;;;6249865;22;20427;-76
2022/11/12 05:37:03;;;;;;;41.47;19.65;;;;;;;;;;6274269;22;20071;-76
2022/11/12 05:39:28;;;;;;;41.20;19.05;;;;;;;;;;6274963;22;20011;-77
2022/11/12 05:41:54;;;;;;;36.15;19.75;;;;;;;;;;6273663;22;20000;-76
2022/11/12 05:44:19;;;;;;;37.80;20.38;;;;;;;;;;6276348;22;20362;-77
2022/11/12 05:46:45;;;;;;;39.50;20.05;;;;;;;;;;6278554;22;20441;-78
2022/11/12 05:49:10;;;;;;;36.85;19.70;;;;;;;;;;6287250;22;20074;-77
2022/11/12 05:51:36;;;;;;;39.15;20.08;;;;;;;;;;6274357;22;20004;-76
2022/11/12 05:54:01;;;;;;;40.70;21.08;;;;;;;;;;6275767;22;20011;-77
2022/11/12 05:56:27;;;;;;;41.80;21.92;;;;;;;;;;6248907;22;20004;-77
2022/11/12 05:58:52;;;;;;;39.15;21.08;;;;;;;;;;6275052;22;20039;-77
2022/11/12 06:01:17;;;;;;;41.28;20.95;;;;;;;;;;6274263;22;20378;-77
2022/11/12 06:03:43;;;;;;;38.20;20.50;;;;;;;;;;6223558;22;20018;-77
2022/11/12 06:06:08;;;;;;;40.65;21.25;;;;;;;;;;6248903;22;20004;-76
2022/11/12 06:08:34;;;;;;;38.55;20.98;;;;;;;;;;6276022;22;20003;-77
2022/11/12 06:10:59;;;;;;;38.25;20.77;;;;;;;;;;6276127;22;20010;-78
2022/11/12 06:13:25;;;;;;;38.03;22.05;;;;;;;;;;6274529;22;20004;-77
2022/11/12 06:15:51;;;;;;;40.72;21.52;;;;;;;;;;6248602;22;19996;-78
2022/11/12 06:18:16;;;;;;;37.78;21.30;;;;;;;;;;6276064;22;20334;-77
2022/11/12 06:20:42;;;;;;;37.55;21.10;;;;;;;;;;6275279;22;19999;-78
2022/11/12 06:23:07;;;;;;;38.25;22.67;;;;;;;;;;6279158;22;20014;-78
2022/11/12 06:25:33;;;;;;;39.67;22.38;;;;;;;;;;6276180;22;19996;-77
2022/11/12 06:27:58;;;;;;;43.28;23.50;;;;;;;;;;6274323;22;20516;-77
2022/11/12 06:30:24;;;;;;;45.05;23.67;;;;;;;;;;6274159;22;19999;-78
2022/11/12 06:32:49;;;;;;;40.60;23.77;;;;;;;;;;6273977;22;20039;-77
2022/11/12 06:35:15;;;;;;;45.47;24.05;;;;;;;;;;6248205;22;20087;-78
2022/11/12 06:37:41;;;;;;;42.30;22.70;;;;;;;;;;6274034;22;20415;-77
2022/11/12 06:40:07;;;;;;;43.28;23.23;;;;;;;;;;6273881;22;20015;-77
2022/11/12 06:42:32;;;;;;;34.80;22.08;;;;;;;;;;6275700;22;20019;-77
2022/11/12 06:44:58;;;;;;;38.90;23.15;;;;;;;;;;6273145;22;20082;-77
2022/11/12 06:47:23;;;;;;;47.15;25.90;;;;;;;;;;6273745;22;20425;-77
2022/11/12 06:49:48;;;;;;;53.13;25.60;;;;;;;;;;6274936;22;20006;-77
2022/11/12 06:52:14;;;;;;;40.97;22.83;;;;;;;;;;6273371;22;20069;-78
2022/11/12 06:54:40;;;;;;;36.45;22.17;;;;;;;;;;6248090;22;20000;-77
2022/11/12 06:57:05;;;;;;;40.28;22.95;;;;;;;;;;6271895;22;20012;-77
2022/11/12 06:59:31;;;;;;;39.67;22.52;;;;;;;;;;6269658;22;20635;-76
2022/11/12 07:01:56;;;;;;;42.72;22.10;;;;;;;;;;6271376;22;20396;-77
2022/11/12 07:04:23;;;;;;;37.63;21.90;;;;;;;;;;6270594;22;20019;-77
2022/11/12 07:06:49;;;;;;;36.60;21.10;;;;;;;;;;6270311;22;20002;-78
2022/11/12 07:09:16;;;;;;;36.05;21.13;;;;;;;;;;6271060;22;20418;-78
2022/11/12 07:11:41;;;;;;;28.92;18.15;;;;;;;;;;6271673;22;20003;-78
2022/11/12 07:14:07;;;;;;;42.53;21.02;;;;;;;;;;6271486;22;20490;-78
2022/11/12 07:16:33;;;;;;;37.25;20.08;;;;;;;;;;6271923;22;20292;-78
2022/11/12 07:18:58;;;;;;;30.00;19.52;;;;;;;;;;6245782;22;20000;-78
2022/11/12 07:21:24;;;;;;;29.05;19.05;;;;;;;;;;6273465;22;20004;-76
2022/11/12 07:23:49;;;;;;;33.75;18.98;;;;;;;;;;6271230;22;20014;-78
2022/11/12 07:26:20;;;;;;;30.58;18.90;;;;;;;;;;6246008;22;20046;-78
2022/11/12 07:28:46;;;;;;;29.30;17.95;;;;;;;;;;6273812;22;20011;-76
2022/11/12 07:31:12;;;;;;;29.60;18.45;;;;;;;;;;6274695;22;20350;-77
2022/11/12 07:33:38;;;;;;;33.80;19.17;;;;;;;;;;6273092;22;20004;-77
2022/11/12 07:36:05;;;;;;;32.50;18.70;;;;;;;;;;6273235;22;20099;-77
2022/11/12 07:38:32;;;;;;;36.50;19.80;;;;;;;;;;6273483;22;20008;-77
2022/11/12 07:41:24;;;;;;;31.55;19.73;;;;;;;;;;6275086;22;20145;-78
2022/11/12 07:43:51;;;;;;;30.13;18.80;;;;;;;;;;6271621;22;20007;-79
2022/11/12 07:46:17;;;;;;;31.90;18.90;;;;;;;;;;6247732;22;20125;-78
2022/11/12 07:48:43;;;;;;;28.33;18.17;;;;;;;;;;6272798;22;20026;-77
2022/11/12 07:51:13;;;;;;;30.45;18.73;;;;;;;;;;6248006;22;20006;-78
2022/11/12 07:53:38;;;;;;;31.48;18.35;;;;;;;;;;6247883;22;20000;-77
2022/11/12 07:56:04;;;;;;;33.95;18.38;;;;;;;;;;6247695;22;20008;-77
2022/11/12 07:58:31;;;;;;;37.17;19.30;;;;;;;;;;6247559;22;20011;-77
2022/11/12 08:00:57;;;;;;;28.52;17.90;;;;;;;;;;6247683;22;20090;-77
2022/11/12 08:03:22;;;;;;;30.35;18.52;;;;;;;;;;6272726;22;20018;-78
2022/11/12 08:05:48;;;;;;;30.67;19.23;;;;;;;;;;6274684;22;20056;-79
2022/11/12 08:08:13;;;;;;;32.95;19.60;;;;;;;;;;6274745;22;20035;-76
2022/11/12 08:10:39;;;;;;;32.08;18.73;;;;;;;;;;6274578;22;20004;-77
2022/11/12 08:13:04;;;;;;;29.98;18.63;;;;;;;;;;6274578;22;20006;-76
2022/11/12 08:15:30;;;;;;;27.40;17.52;;;;;;;;;;6274405;22;20007;-77
2022/11/12 08:17:55;;;;;;;26.33;16.73;;;;;;;;;;6272549;22;20007;-77
2022/11/12 08:20:21;;;;;;;26.02;16.13;;;;;;;;;;6274592;22;20097;-77
2022/11/12 08:22:47;;;;;;;24.48;15.27;;;;;;;;;;6274675;22;20016;-77
2022/11/12 08:25:12;;;;;;;25.63;15.52;;;;;;;;;;6247455;22;20058;-78
2022/11/12 08:27:38;;;;;;;25.42;15.82;;;;;;;;;;6272980;22;19996;-77
2022/11/12 08:30:04;;;;;;;23.65;14.77;;;;;;;;;;6274529;22;20091;-77
2022/11/12 08:32:30;;;;;;;22.38;14.32;;;;;;;;;;6247549;22;20000;-78
2022/11/12 08:34:55;;;;;;;24.75;15.00;;;;;;;;;;6247091;22;20458;-78
2022/11/12 08:37:20;;;;;;;24.45;14.20;;;;;;;;;;6272578;22;20357;-77
2022/11/12 08:39:46;;;;;;;24.40;14.85;;;;;;;;;;6273006;22;20048;-77
2022/11/12 08:42:11;;;;;;;24.15;14.88;;;;;;;;;;6274568;22;20055;-79
2022/11/12 08:44:37;;;;;;;24.27;14.98;;;;;;;;;;6275257;22;20078;-76
2022/11/12 08:47:02;;;;;;;24.48;15.02;;;;;;;;;;6272204;22;20000;-76
2022/11/12 08:49:28;;;;;;;24.95;13.90;;;;;;;;;;6273047;22;20007;-77
2022/11/12 08:51:53;;;;;;;23.17;14.15;;;;;;;;;;6271061;22;20004;-77
2022/11/12 08:54:19;;;;;;;23.65;15.32;;;;;;;;;;6271624;22;20320;-77
2022/11/12 08:56:44;;;;;;;27.63;16.30;;;;;;;;;;6245902;22;20112;-75
2022/11/12 08:59:10;;;;;;;26.70;15.55;;;;;;;;;;6271684;22;20070;-76
2022/11/12 09:01:35;;;;;;;27.10;16.23;;;;;;;;;;6271725;22;20000;-77
2022/11/12 09:04:01;;;;;;;24.70;15.85;;;;;;;;;;6290620;22;20019;-77
2022/11/12 09:06:26;;;;;;;28.65;16.48;;;;;;;;;;6271790;22;20011;-77
2022/11/12 09:08:52;;;;;;;27.08;15.90;;;;;;;;;;6271254;22;20007;-77
2022/11/12 09:11:17;;;;;;;27.52;17.38;;;;;;;;;;6271030;22;20007;-79
2022/11/12 09:13:43;;;;;;;24.77;15.57;;;;;;;;;;6272604;22;19999;-78
2022/11/12 09:16:08;;;;;;;26.90;16.63;;;;;;;;;;6272051;22;20008;-79
2022/11/12 09:18:34;;;;;;;28.95;16.98;;;;;;;;;;6271811;22;20000;-75
2022/11/12 09:21:01;;;;;;;30.27;18.58;;;;;;;;;;6272112;22;20004;-77
2022/11/12 09:23:27;;;;;;;29.35;16.55;;;;;;;;;;6219921;22;20340;-76
2022/11/12 09:25:53;;;;;;;30.38;17.10;;;;;;;;;;6271612;22;20014;-75
2022/11/12 09:28:19;;;;;;;32.55;16.73;;;;;;;;;;6273945;22;20004;-76
2022/11/12 09:30:49;;;;;;;25.70;16.08;;;;;;;;;;6271378;22;20007;-79
2022/11/12 09:33:15;;;;;;;30.23;16.40;;;;;;;;;;6248680;22;20087;-78
2022/11/12 09:35:41;;;;;;;28.40;16.45;;;;;;;;;;6273456;22;20026;-78
2022/11/12 09:38:07;;;;;;;27.48;16.80;;;;;;;;;;6248390;22;19996;-78
2022/11/12 09:40:52;;;;;;;28.40;17.63;;;;;;;;;;6275187;22;20043;-78
2022/11/12 09:43:38;;;;;;;27.45;17.50;;;;;;;;;;6274183;22;20064;-77
2022/11/12 09:46:11;;;;;;;28.27;15.32;;;;;;;;;;6249637;22;20086;-78
2022/11/12 09:48:41;;;;;;;22.60;15.00;;;;;;;;;;6274478;22;20007;-77
2022/11/12 09:51:27;;;;;;;26.35;14.95;;;;;;;;;;6275124;22;20499;-77
2022/11/12 09:53:57;;;;;;;22.90;14.52;;;;;;;;;;6247100;22;20003;-77
2022/11/12 09:56:22;;;;;;;26.15;15.40;;;;;;;;;;6248405;22;20079;-76
2022/11/12 09:58:48;;;;;;;23.88;14.45;;;;;;;;;;6272105;22;19999;-77
2022/11/12 10:01:36;;;;;;;23.80;15.20;;;;;;;;;;6272207;22;19999;-79
2022/11/12 10:04:02;;;;;;;25.02;16.20;;;;;;;;;;6271695;22;20375;-79
2022/11/12 10:06:33;;;;;;;24.25;16.05;;;;;;;;;;6271708;22;20015;-77
2022/11/12 10:09:14;;;;;;;24.02;15.10;;;;;;;;;;6271926;22;19996;-77
2022/11/12 10:16:41;;;;;;;22.48;14.18;;;;;;;;;;6204158;22;20014;-77
2022/11/12 10:18:01;;;;;;;29.90;15.45;;;;;;;;;;6272669;22;20004;-76
2022/11/12 10:20:43;;;;;;;25.58;14.98;;;;;;;;;;6272941;22;20291;-77
2022/11/12 10:23:21;;;;;;;23.00;14.73;;;;;;;;;;6248236;22;20000;-77
2022/11/12 10:25:49;;;;;;;25.03;15.83;;;;;;;;;;6272105;22;20024;-77
2022/11/12 10:28:18;;;;;;;24.52;15.93;;;;;;;;;;6246110;22;20362;-78
2022/11/12 10:30:44;;;;;;;25.60;15.20;;;;;;;;;;6271083;22;20031;-77
2022/11/12 10:33:13;;;;;;;22.88;14.80;;;;;;;;;;6245927;22;20011;-77
2022/11/12 10:35:39;;;;;;;23.83;14.47;;;;;;;;;;6274177;22;20599;-77
2022/11/12 10:38:05;;;;;;;20.65;13.80;;;;;;;;;;6274113;22;20266;-77
2022/11/12 10:40:40;;;;;;;18.85;12.82;;;;;;;;;;6272471;22;20456;-77
2022/11/12 10:43:15;;;;;;;16.83;11.57;;;;;;;;;;6221540;22;20351;-77
2022/11/12 10:45:41;;;;;;;19.83;12.60;;;;;;;;;;6270704;22;20374;-78
2022/11/12 10:48:32;;;;;;;19.40;13.20;;;;;;;;;;6245463;22;20004;-77
2022/11/12 10:50:58;;;;;;;20.88;13.45;;;;;;;;;;6248219;22;20008;-76
2022/11/12 10:53:37;;;;;;;20.17;12.30;;;;;;;;;;6273408;22;20131;-77
2022/11/12 10:56:24;;;;;;;21.15;12.88;;;;;;;;;;6245472;22;20070;-77
2022/11/12 10:59:15;;;;;;;19.27;12.43;;;;;;;;;;6256484;22;20041;-77
2022/11/12 11:01:42;;;;;;;20.60;13.15;;;;;;;;;;6273263;22;20023;-78
2022/11/12 11:04:34;;;;;;;23.13;12.95;;;;;;;;;;6246306;22;20082;-78
2022/11/12 11:07:14;;;;;;;20.30;13.05;;;;;;;;;;6268136;22;20293;-77
2022/11/12 11:09:39;;;;;;;19.00;12.45;;;;;;;;;;6273951;22;20003;-78
2022/11/12 11:12:17;;;;;;;20.58;13.52;;;;;;;;;;6247264;22;20599;-78
2022/11/12 11:14:43;;;;;;;21.52;13.27;;;;;;;;;;6250144;22;20003;-78
2022/11/12 11:17:15;;;;;;;19.33;11.18;;;;;;;;;;6273942;22;20284;-78
2022/11/12 11:19:40;;;;;;;19.33;10.88;;;;;;;;;;6248240;22;19999;-78
2022/11/12 11:22:22;;;;;;;16.60;10.73;;;;;;;;;;6246993;22;20007;-78
2022/11/12 11:25:09;;;;;;;17.05;11.15;;;;;;;;;;6271852;22;20004;-78
2022/11/12 11:27:40;;;;;;;15.52;10.85;;;;;;;;;;6249645;22;20004;-78
2022/11/12 11:30:16;;;;;;;18.70;11.73;;;;;;;;;;6249923;22;20090;-77
2022/11/12 11:32:47;;;;;;;16.10;10.88;;;;;;;;;;6276008;22;20010;-77
2022/11/12 11:35:36;;;;;;;16.80;10.57;;;;;;;;;;6274620;22;20008;-77
2022/11/12 11:38:20;;;;;;;16.67;10.45;;;;;;;;;;6263733;22;20126;-78
2022/11/12 11:40:52;;;;;;;25.33;10.98;;;;;;;;;;6273362;22;20015;-78
2022/11/12 11:43:56;;;;;;;14.75;9.85;;;;;;;;;;6275186;22;20057;-78
2022/11/12 11:46:31;;;;;;;15.60;9.65;;;;;;;;;;6199694;22;20363;-77
2022/11/12 11:49:11;;;;;;;14.77;9.35;;;;;;;;;;6277444;22;20385;-77
2022/11/12 11:52:21;;;;;;;18.50;9.73;;;;;;;;;;6278623;22;20000;-78
2022/11/12 11:55:13;;;;;;;15.57;8.88;;;;;;;;;;6188755;23;20440;-77
2022/11/12 11:57:50;;;;;;;13.48;8.63;;;;;;;;;;6167190;23;20020;-78
2022/11/12 12:00:24;;;;;;;13.20;8.77;;;;;;;;;;6250851;22;20023;-78
2022/11/12 12:03:09;;;;;;;14.07;9.30;;;;;;;;;;6281292;22;20430;-77
2022/11/12 12:05:48;;;;;;;14.45;8.75;;;;;;;;;;6275554;22;20012;-77
2022/11/12 12:08:19;;;;;;;15.68;9.02;;;;;;;;;;6274842;22;20000;-77
2022/11/12 12:10:48;;;;;;;14.43;9.15;;;;;;;;;;6273781;22;20000;-76
2022/11/12 12:13:40;;;;;;;17.65;9.00;;;;;;;;;;6275110;22;20081;-77
2022/11/12 12:16:08;;;;;;;13.77;9.02;;;;;;;;;;6227467;22;20007;-76
2022/11/12 12:18:59;;;;;;;13.13;8.60;;;;;;;;;;6280255;22;19988;-77
2022/11/12 12:21:25;;;;;;;;;;;;;;;;;;6284376;22;20004;-77
2022/11/12 12:24:14;;;;;;;16.50;8.68;;;;;;;;;;6274691;22;20286;-78
2022/11/12 12:26:45;;;;;;;14.23;8.88;;;;;;;;;;6273255;22;20110;-77
2022/11/12 12:29:43;;;;;;;14.80;9.32;;;;;;;;;;6274580;22;20414;-77
2022/11/12 12:32:21;;;;;;;14.57;9.10;;;;;;;;;;6262997;22;20011;-77
2022/11/12 12:34:55;;;;;;;16.75;10.38;;;;;;;;;;6248078;22;20086;-77
2022/11/12 12:37:25;;;;;;;15.77;10.15;;;;;;;;;;6247247;22;20481;-77
2022/11/12 12:39:52;;;;;;;13.38;9.00;;;;;;;;;;6246399;22;20436;-78
2022/11/12 12:42:21;;;;;;;15.23;8.88;;;;;;;;;;6271004;22;20027;-77
2022/11/12 12:44:59;;;;;;;17.33;9.57;;;;;;;;;;6271971;22;20343;-76
2022/11/12 12:47:26;;;;;;;16.83;10.77;;;;;;;;;;6272072;22;20187;-77
2022/11/12 12:49:52;;;;;;;15.45;9.18;;;;;;;;;;6246774;22;20004;-78
2022/11/12 12:52:17;;;;;;;15.60;9.05;;;;;;;;;;6274012;22;20346;-77
2022/11/12 12:54:51;;;;;;;14.90;10.20;;;;;;;;;;6271704;22;20000;-78
2022/11/12 12:57:37;;;;;;;15.50;9.73;;;;;;;;;;6272459;22;20426;-78
2022/11/12 13:00:30;;;;;;;15.90;10.10;;;;;;;;;;6271633;22;20464;-79
2022/11/12 13:02:55;;;;;;;15.90;9.77;;;;;;;;;;6273049;22;20038;-79
2022/11/12 13:05:26;;;;;;;16.42;10.45;;;;;;;;;;6246082;22;20163;-78
2022/11/12 13:07:51;;;;;;;15.32;9.93;;;;;;;;;;6273217;22;19999;-78
2022/11/12 13:10:35;;;;;;;15.73;9.80;;;;;;;;;;6276557;22;20004;-77
2022/11/12 13:13:18;;;;;;;15.93;10.10;;;;;;;;;;6279540;22;20034;-78
2022/11/12 13:15:47;;;;;;;13.70;9.20;;;;;;;;;;6275514;22;20014;-78
2022/11/12 13:18:38;;;;;;;21.02;9.95;;;;;;;;;;6276100;22;20004;-77
2022/11/12 13:21:09;;;;;;;17.65;10.18;;;;;;;;;;6275859;22;20031;-78
2022/11/12 13:24:06;;;;;;;14.70;10.60;;;;;;;;;;6276015;22;20008;-78
2022/11/12 13:26:41;;;;;;;18.77;10.43;;;;;;;;;;6253368;22;20003;-77
2022/11/12 13:29:26;;;;;;;14.75;9.50;;;;;;;;;;6274701;22;20070;-78
2022/11/12 13:32:29;;;;;;;18.25;10.52;;;;;;;;;;6276515;22;20416;-78
2022/11/12 13:35:13;;;;;;;17.30;10.50;;;;;;;;;;6277493;22;20018;-77
2022/11/12 13:37:43;;;;;;;17.27;11.50;;;;;;;;;;6276176;22;20004;-78
2022/11/12 13:40:13;;;;;;;17.43;10.80;;;;;;;;;;6274540;22;20002;-77
2022/11/12 13:42:47;;;;;;;16.77;10.65;;;;;;;;;;6274628;22;21158;-77
2022/11/12 13:45:13;;;;;;;19.45;10.55;;;;;;;;;;6274704;22;20027;-77
2022/11/12 13:47:39;;;;;;;16.65;9.95;;;;;;;;;;6276199;22;20019;-78
2022/11/12 13:50:09;;;;;;;16.90;10.43;;;;;;;;;;6274156;22;20480;-78
2022/11/12 13:52:34;;;;;;;16.08;9.80;;;;;;;;;;6250012;22;20078;-77
2022/11/12 13:55:01;;;;;;;18.05;11.70;;;;;;;;;;6283272;22;20007;-77
2022/11/12 13:57:29;;;;;;;22.60;11.23;;;;;;;;;;6276140;22;19999;-77
2022/11/12 14:00:10;;;;;;;17.85;10.80;;;;;;;;;;6275827;22;20149;-78
2022/11/12 14:02:36;;;;;;;14.88;9.52;;;;;;;;;;6274772;22;20466;-78
2022/11/12 14:05:02;;;;;;;20.52;10.40;;;;;;;;;;6248584;22;20063;-78
2022/11/12 14:07:48;;;;;;;18.83;10.45;;;;;;;;;;6274540;22;20004;-78
2022/11/12 14:10:33;;;;;;;16.27;10.10;;;;;;;;;;6249108;22;19996;-78
2022/11/12 14:13:04;;;;;;;16.63;9.60;;;;;;;;;;6275682;22;20086;-78
2022/11/12 14:15:35;;;;;;;17.77;10.10;;;;;;;;;;6278491;22;20057;-78
2022/11/12 14:18:36;;;;;;;16.02;9.65;;;;;;;;;;6274119;22;20011;-77
2022/11/12 14:21:17;;;;;;;15.10;9.23;;;;;;;;;;6266014;22;20053;-77
2022/11/12 14:23:46;;;;;;;20.00;10.38;;;;;;;;;;6247123;22;20008;-77
2022/11/12 14:26:12;;;;;;;25.90;11.32;;;;;;;;;;6273920;22;20130;-76
2022/11/12 14:28:38;;;;;;;24.60;11.95;;;;;;;;;;6273164;22;20016;-76
2022/11/12 14:31:10;;;;;;;24.27;11.75;;;;;;;;;;6274779;22;20010;-76
2022/11/12 14:33:35;;;;;;;21.13;12.05;;;;;;;;;;6273628;22;20342;-76
2022/11/12 14:36:02;;;;;;;19.15;12.27;;;;;;;;;;6280663;22;20023;-76
2022/11/12 14:38:32;;;;;;;24.88;12.63;;;;;;;;;;6272812;22;20074;-76
2022/11/12 14:40:58;;;;;;;21.83;12.65;;;;;;;;;;6272074;22;20054;-76
2022/11/12 14:43:43;;;;;;;20.90;12.38;;;;;;;;;;6272019;22;20094;-77
2022/11/12 14:46:36;;;;;;;20.67;12.00;;;;;;;;;;6274538;22;20027;-76
2022/11/12 14:49:03;;;;;;;25.23;14.40;;;;;;;;;;6272256;22;20049;-76
2022/11/12 14:51:30;;;;;;;24.92;14.07;;;;;;;;;;6247307;22;20438;-78
2022/11/12 14:54:06;;;;;;;25.50;13.07;;;;;;;;;;6273976;22;20003;-76
2022/11/12 14:56:39;;;;;;;28.65;15.50;;;;;;;;;;6254400;22;20047;-77
2022/11/12 14:59:04;;;;;;;22.50;13.55;;;;;;;;;;6274582;22;20082;-77